createdAt,value
2018-05-10T00:00:44.555Z,0.00
2018-05-10T00:01:44.643Z,0.00
2018-05-10T00:02:44.683Z,0.00
2018-05-10T00:03:44.649Z,0.00
2018-05-10T00:04:44.554Z,0.00
2018-05-10T00:05:44.098Z,0.00
2018-05-10T00:06:43.749Z,0.00
2018-05-10T00:07:44.923Z,0.00
2018-05-10T00:08:43.910Z,0.00
2018-05-10T00:09:45.003Z,0.00
2018-05-10T00:10:44.064Z,0.00
2018-05-10T00:11:43.927Z,0.00
2018-05-10T00:12:44.656Z,0.00
2018-05-10T00:13:44.647Z,0.00
2018-05-10T00:14:45.096Z,0.00
2018-05-10T00:15:44.300Z,0.00
2018-05-10T00:17:04.924Z,0.00
2018-05-10T00:18:05.481Z,0.00
2018-05-10T00:19:05.620Z,0.00
2018-05-10T00:20:05.753Z,0.00
2018-05-10T00:21:46.979Z,0.00
2018-05-10T00:22:47.971Z,0.00
2018-05-10T00:23:47.696Z,0.00
2018-05-10T00:24:47.727Z,0.00
2018-05-10T00:25:47.776Z,0.00
2018-05-10T00:27:07.809Z,0.00
2018-05-10T00:28:08.735Z,0.00
2018-05-10T00:29:08.636Z,0.00
2018-05-10T00:30:08.228Z,0.00
2018-05-10T00:31:08.337Z,0.00
2018-05-10T00:32:49.208Z,0.00
2018-05-10T00:33:49.865Z,0.00
2018-05-10T00:34:49.575Z,0.00
2018-05-10T00:35:49.280Z,0.00
2018-05-10T00:37:51.814Z,0.00
2018-05-10T00:38:52.808Z,0.00
2018-05-10T00:39:51.920Z,0.00
2018-05-10T00:40:51.694Z,0.00
2018-05-10T00:41:52.736Z,0.00
2018-05-10T00:42:51.924Z,0.00
2018-05-10T00:43:51.973Z,0.00
2018-05-10T00:44:51.953Z,0.00
2018-05-10T00:45:51.616Z,0.00
2018-05-10T00:46:52.964Z,0.00
2018-05-10T00:47:51.489Z,0.00
2018-05-10T00:48:52.239Z,0.00
2018-05-10T00:49:52.226Z,0.00
2018-05-10T00:50:52.815Z,0.00
2018-05-10T00:51:51.367Z,0.00
2018-05-10T00:53:13.552Z,0.00
2018-05-10T00:54:14.570Z,0.00
2018-05-10T00:55:13.735Z,0.00
2018-05-10T00:56:13.367Z,0.00
2018-05-10T00:57:14.187Z,0.00
2018-05-10T00:58:14.480Z,0.00
2018-05-10T00:59:14.001Z,0.00
2018-05-10T01:00:56.078Z,0.00
2018-05-10T01:02:18.346Z,0.00
2018-05-10T01:03:18.265Z,0.00
2018-05-10T01:04:18.910Z,0.00
2018-05-10T01:05:18.969Z,0.00
2018-05-10T01:06:39.801Z,0.00
2018-05-10T01:07:39.654Z,0.00
2018-05-10T01:08:40.532Z,0.00
2018-05-10T01:09:40.357Z,0.00
2018-05-10T01:10:40.284Z,0.00
2018-05-10T01:11:40.244Z,0.00
2018-05-10T01:12:40.216Z,0.00
2018-05-10T01:13:40.287Z,0.00
2018-05-10T01:14:40.144Z,0.00
2018-05-10T01:15:39.729Z,0.00
2018-05-10T01:16:39.502Z,0.00
2018-05-10T01:17:40.319Z,0.00
2018-05-10T01:18:40.294Z,0.00
2018-05-10T01:19:40.025Z,0.00
2018-05-10T01:20:40.156Z,0.00
2018-05-10T01:21:39.832Z,0.00
2018-05-10T01:22:39.775Z,0.00
2018-05-10T01:23:40.782Z,0.00
2018-05-10T01:24:39.782Z,0.00
2018-05-10T01:26:00.335Z,0.00
2018-05-10T01:27:00.083Z,0.00
2018-05-10T01:28:01.100Z,0.00
2018-05-10T01:29:00.888Z,0.00
2018-05-10T01:30:00.992Z,0.00
2018-05-10T01:31:01.164Z,0.00
2018-05-10T01:32:21.401Z,0.00
2018-05-10T01:33:22.116Z,0.00
2018-05-10T01:34:22.092Z,0.00
2018-05-10T01:35:21.626Z,0.00
2018-05-10T01:36:21.719Z,0.00
2018-05-10T01:37:21.372Z,0.00
2018-05-10T01:38:22.649Z,0.00
2018-05-10T01:39:21.367Z,0.00
2018-05-10T01:40:22.447Z,0.00
2018-05-10T01:41:22.586Z,0.00
2018-05-10T01:42:21.670Z,0.00
2018-05-10T01:43:22.515Z,0.00
2018-05-10T01:44:22.187Z,0.00
2018-05-10T01:45:21.940Z,0.00
2018-05-10T01:46:21.707Z,0.00
2018-05-10T01:47:21.528Z,0.00
2018-05-10T01:48:22.248Z,0.00
2018-05-10T01:49:22.279Z,0.00
2018-05-10T01:50:42.347Z,0.00
2018-05-10T01:51:42.549Z,0.00
2018-05-10T01:52:42.556Z,0.00
2018-05-10T01:53:42.093Z,0.00
2018-05-10T01:55:03.132Z,0.00
2018-05-10T01:56:24.621Z,0.00
2018-05-10T01:57:25.349Z,0.00
2018-05-10T01:58:24.945Z,0.00
2018-05-10T01:59:25.004Z,0.00
2018-05-10T02:00:25.052Z,0.00
2018-05-10T02:01:24.942Z,0.00
2018-05-10T02:02:25.118Z,0.00
2018-05-10T02:03:25.200Z,0.00
2018-05-10T02:04:24.683Z,0.00
2018-05-10T02:05:25.734Z,0.00
2018-05-10T02:06:25.777Z,0.00
2018-05-10T02:07:25.709Z,0.00
2018-05-10T02:08:25.787Z,0.00
2018-05-10T02:09:25.322Z,0.00
2018-05-10T02:10:25.040Z,0.00
2018-05-10T02:11:24.656Z,0.00
2018-05-10T02:12:45.840Z,0.00
2018-05-10T02:13:46.629Z,0.00
2018-05-10T02:15:06.934Z,0.00
2018-05-10T02:16:28.897Z,0.00
2018-05-10T02:17:28.988Z,0.00
2018-05-10T02:18:29.137Z,0.00
2018-05-10T02:19:28.629Z,0.00
2018-05-10T02:20:29.609Z,0.00
2018-05-10T02:21:29.587Z,0.00
2018-05-10T02:22:29.040Z,0.00
2018-05-10T02:23:28.551Z,0.00
2018-05-10T02:24:29.487Z,0.00
2018-05-10T02:25:29.075Z,0.00
2018-05-10T02:26:29.012Z,0.00
2018-05-10T02:27:29.005Z,0.00
2018-05-10T02:28:28.586Z,0.00
2018-05-10T02:29:29.234Z,0.00
2018-05-10T02:30:49.081Z,0.00
2018-05-10T02:31:50.066Z,0.00
2018-05-10T02:32:49.483Z,0.00
2018-05-10T02:34:10.266Z,0.00
2018-05-10T02:35:11.010Z,0.00
2018-05-10T02:36:10.552Z,0.00
2018-05-10T02:37:51.387Z,0.00
2018-05-10T02:38:52.320Z,0.00
2018-05-10T02:39:52.292Z,0.00
2018-05-10T02:40:52.008Z,0.00
2018-05-10T02:41:51.978Z,0.00
2018-05-10T02:43:12.371Z,0.00
2018-05-10T02:44:13.310Z,0.00
2018-05-10T02:45:13.190Z,0.00
2018-05-10T02:46:33.843Z,0.00
2018-05-10T02:47:34.374Z,0.00
2018-05-10T02:48:33.968Z,0.00
2018-05-10T02:49:33.821Z,1.00
2018-05-10T02:50:34.375Z,1.00
2018-05-10T02:51:34.260Z,1.00
2018-05-10T02:52:34.351Z,0.00
2018-05-10T02:53:33.813Z,1.00
2018-05-10T02:55:36.026Z,1.00
2018-05-10T02:56:36.904Z,1.00
2018-05-10T02:57:57.509Z,1.00
2018-05-10T02:58:57.475Z,2.00
2018-05-10T03:00:19.185Z,2.00
2018-05-10T03:01:19.515Z,2.00
2018-05-10T03:02:19.117Z,2.00
2018-05-10T03:03:20.133Z,2.00
2018-05-10T03:04:19.148Z,3.00
2018-05-10T03:05:20.037Z,3.00
2018-05-10T03:06:19.721Z,4.00
2018-05-10T03:07:40.568Z,5.00
2018-05-10T03:08:41.567Z,5.00
2018-05-10T03:09:41.205Z,6.00
2018-05-10T03:11:01.960Z,8.00
2018-05-10T03:12:02.601Z,9.00
2018-05-10T03:13:02.630Z,11.00
2018-05-10T03:14:23.090Z,13.00
2018-05-10T03:15:44.034Z,16.00
2018-05-10T03:16:44.928Z,19.00
2018-05-10T03:17:44.988Z,22.00
2018-05-10T03:18:44.669Z,26.00
2018-05-10T03:20:04.944Z,32.00
2018-05-10T03:21:06.050Z,38.00
2018-05-10T03:22:05.540Z,44.00
2018-05-10T03:23:05.288Z,50.00
2018-05-10T03:24:06.271Z,57.00
2018-05-10T03:25:06.341Z,65.00
2018-05-10T03:26:06.237Z,73.00
2018-05-10T03:27:26.454Z,85.00
2018-05-10T03:28:26.163Z,96.00
2018-05-10T03:29:26.916Z,107.00
2018-05-10T03:30:26.525Z,120.00
2018-05-10T03:31:27.503Z,135.00
2018-05-10T03:32:27.077Z,150.00
2018-05-10T03:33:47.426Z,172.00
2018-05-10T03:35:29.569Z,204.00
2018-05-10T03:36:29.584Z,225.00
2018-05-10T03:37:29.587Z,247.00
2018-05-10T03:38:30.176Z,270.00
2018-05-10T03:39:29.808Z,293.00
2018-05-10T03:40:29.401Z,318.00
2018-05-10T03:41:30.292Z,346.00
2018-05-10T03:42:30.250Z,374.00
2018-05-10T03:43:30.276Z,404.00
2018-05-10T03:44:30.316Z,438.00
2018-05-10T03:45:30.185Z,473.00
2018-05-10T03:46:29.920Z,512.00
2018-05-10T03:47:29.726Z,553.00
2018-05-10T03:48:29.822Z,599.00
2018-05-10T03:50:31.348Z,704.00
2018-05-10T03:51:43.157Z,759.00
2018-05-10T03:52:31.875Z,816.00
2018-05-10T03:53:32.038Z,877.00
2018-05-10T03:54:52.272Z,967.00
2018-05-10T03:55:53.249Z,1038.00
2018-05-10T03:56:52.553Z,1105.00
2018-05-10T03:57:52.666Z,1171.00
2018-05-10T03:58:52.731Z,1233.00
2018-05-10T03:59:53.526Z,1295.00
2018-05-10T04:00:52.474Z,1353.00
2018-05-10T04:02:33.275Z,1450.00
2018-05-10T04:03:34.182Z,1502.00
2018-05-10T04:04:54.722Z,1585.00
2018-05-10T04:05:56.094Z,1655.00
2018-05-10T04:06:54.979Z,1728.00
2018-05-10T04:07:55.731Z,1810.00
2018-05-10T04:08:55.684Z,1898.00
2018-05-10T04:09:55.873Z,1993.00
2018-05-10T04:10:55.623Z,2089.00
2018-05-10T04:11:56.103Z,2195.00
2018-05-10T04:12:54.948Z,2300.00
2018-05-10T04:13:56.007Z,2415.00
2018-05-10T04:14:54.730Z,2528.00
2018-05-10T04:15:55.616Z,2648.00
2018-05-10T04:16:55.418Z,2764.00
2018-05-10T04:17:55.816Z,2885.00
2018-05-10T04:18:55.995Z,2992.00
2018-05-10T04:19:55.160Z,3106.00
2018-05-10T04:20:54.978Z,3224.00
2018-05-10T04:21:54.936Z,3343.00
2018-05-10T04:22:54.762Z,3475.00
2018-05-10T04:23:55.516Z,3621.00
2018-05-10T04:24:55.689Z,3787.00
2018-05-10T04:25:55.899Z,3970.00
2018-05-10T04:27:15.528Z,4307.00
2018-05-10T04:28:15.712Z,4563.00
2018-05-10T04:29:15.852Z,4736.00
2018-05-10T04:30:15.699Z,4829.00
2018-05-10T04:31:15.314Z,4963.00
2018-05-10T04:32:16.451Z,5485.00
2018-05-10T04:33:15.686Z,6084.00
2018-05-10T04:34:15.765Z,6327.00
2018-05-10T04:35:15.941Z,6703.00
2018-05-10T04:36:16.026Z,6899.00
2018-05-10T04:37:16.107Z,7040.00
2018-05-10T04:38:22.579Z,7352.00
2018-05-10T04:39:15.443Z,7753.00
2018-05-10T04:40:15.360Z,8022.00
2018-05-10T04:41:15.560Z,8136.00
2018-05-10T04:42:15.302Z,7562.00
2018-05-10T04:43:15.545Z,6799.00
2018-05-10T04:44:15.375Z,6818.00
2018-05-10T04:45:15.497Z,6906.00
2018-05-10T04:46:15.780Z,6796.00
2018-05-10T04:47:15.939Z,6830.00
2018-05-10T04:48:15.786Z,7038.00
2018-05-10T04:49:15.735Z,7126.00
2018-05-10T04:50:15.674Z,6803.00
2018-05-10T04:51:15.736Z,6769.00
2018-05-10T04:52:15.764Z,6740.00
2018-05-10T04:53:38.483Z,6776.00
2018-05-10T04:54:38.400Z,6944.00
2018-05-10T04:55:38.642Z,7062.00
2018-05-10T04:56:39.154Z,7113.00
2018-05-10T04:57:39.308Z,7152.00
2018-05-10T04:58:39.591Z,7200.00
2018-05-10T04:59:38.336Z,7213.00
2018-05-10T05:00:38.165Z,7296.00
2018-05-10T05:01:59.718Z,7509.00
2018-05-10T05:03:00.515Z,7602.00
2018-05-10T05:04:00.307Z,7789.00
2018-05-10T05:05:00.376Z,8050.00
2018-05-10T05:06:00.272Z,8104.00
2018-05-10T05:07:00.459Z,8292.00
2018-05-10T05:08:00.693Z,8552.00
2018-05-10T05:09:00.955Z,8626.00
2018-05-10T05:10:00.999Z,8677.00
2018-05-10T05:11:00.980Z,8872.00
2018-05-10T05:11:59.925Z,8962.00
2018-05-10T05:13:01.000Z,9097.00
2018-05-10T05:14:00.626Z,9181.00
2018-05-10T05:15:00.740Z,9380.00
2018-05-10T05:16:00.969Z,9471.00
2018-05-10T05:17:00.056Z,9568.00
2018-05-10T05:18:00.625Z,9740.00
2018-05-10T05:19:00.391Z,9850.00
2018-05-10T05:20:00.640Z,10222.00
2018-05-10T05:21:21.922Z,10158.00
2018-05-10T05:22:22.224Z,10246.00
2018-05-10T05:23:22.404Z,11096.00
2018-05-10T05:24:23.647Z,11281.00
2018-05-10T05:25:23.270Z,11350.00
2018-05-10T05:26:23.000Z,11260.00
2018-05-10T05:27:22.745Z,11114.00
2018-05-10T05:28:22.727Z,11291.00
2018-05-10T05:29:23.057Z,11520.00
2018-05-10T05:30:22.132Z,11624.00
2018-05-10T05:31:21.922Z,11904.00
2018-05-10T05:32:21.995Z,11978.00
2018-05-10T05:33:21.778Z,11944.00
2018-05-10T05:34:22.083Z,12535.00
2018-05-10T05:35:22.278Z,13074.00
2018-05-10T05:36:43.441Z,13425.00
2018-05-10T05:37:43.658Z,13410.00
2018-05-10T05:38:43.484Z,13235.00
2018-05-10T05:40:04.920Z,13499.00
2018-05-10T05:41:05.718Z,13777.00
2018-05-10T05:42:05.607Z,13574.00
2018-05-10T05:43:05.886Z,13573.00
2018-05-10T05:44:05.960Z,13779.00
2018-05-10T05:45:05.824Z,14482.00
2018-05-10T05:46:27.072Z,14613.00
2018-05-10T05:47:27.243Z,15107.00
2018-05-10T05:48:27.399Z,15623.00
2018-05-10T05:49:27.335Z,15973.00
2018-05-10T05:50:27.143Z,16033.00
2018-05-10T05:51:27.441Z,17016.00
2018-05-10T05:52:27.665Z,17296.00
2018-05-10T05:53:27.567Z,17864.00
2018-05-10T05:54:27.469Z,17600.00
2018-05-10T05:55:27.465Z,18192.00
2018-05-10T05:56:27.593Z,18424.00
2018-05-10T05:57:27.292Z,19168.00
2018-05-10T05:58:27.051Z,20808.00
2018-05-10T05:59:26.875Z,20712.00
2018-05-10T06:00:27.020Z,22320.00
2018-05-10T06:01:48.276Z,22736.00
2018-05-10T06:02:48.132Z,23200.00
2018-05-10T06:04:10.476Z,23560.00
2018-05-10T06:05:11.404Z,25176.00
2018-05-10T06:06:11.655Z,25368.00
2018-05-10T06:07:31.173Z,24120.00
2018-05-10T06:08:32.069Z,23416.00
2018-05-10T06:09:31.756Z,22912.00
2018-05-10T06:10:32.015Z,22912.00
2018-05-10T06:11:32.100Z,22248.00
2018-05-10T06:12:32.022Z,21976.00
2018-05-10T06:13:31.713Z,21984.00
2018-05-10T06:14:31.786Z,19984.00
2018-05-10T06:15:32.154Z,18296.00
2018-05-10T06:16:32.085Z,19008.00
2018-05-10T06:17:32.231Z,18408.00
2018-05-10T06:18:32.595Z,19568.00
2018-05-10T06:19:31.894Z,23720.00
2018-05-10T06:20:52.289Z,24072.00
2018-05-10T06:21:54.076Z,23728.00
2018-05-10T06:22:53.451Z,19976.00
2018-05-10T06:23:52.488Z,20976.00
2018-05-10T06:24:53.683Z,25224.00
2018-05-10T06:25:52.809Z,23432.00
2018-05-10T06:26:52.808Z,23848.00
2018-05-10T06:27:53.024Z,24488.00
2018-05-10T06:28:53.135Z,22128.00
2018-05-10T06:29:53.372Z,20744.00
2018-05-10T06:30:53.502Z,20768.00
2018-05-10T06:32:13.992Z,19128.00
2018-05-10T06:33:13.711Z,15494.00
2018-05-10T06:34:13.507Z,14510.00
2018-05-10T06:35:14.637Z,13390.00
2018-05-10T06:36:13.447Z,13445.00
2018-05-10T06:37:14.832Z,14232.00
2018-05-10T06:38:13.513Z,16448.00
2018-05-10T06:39:13.731Z,17616.00
2018-05-10T06:40:13.651Z,19192.00
2018-05-10T06:41:13.834Z,21592.00
2018-05-10T06:42:13.973Z,24568.00
2018-05-10T06:43:14.368Z,24800.00
2018-05-10T06:44:14.353Z,26040.00
2018-05-10T06:45:14.638Z,24696.00
2018-05-10T06:46:13.988Z,27992.00
2018-05-10T06:47:13.858Z,36032.00
2018-05-10T06:48:14.169Z,37832.00
2018-05-10T06:49:14.076Z,34712.00
2018-05-10T06:50:14.466Z,28728.00
2018-05-10T06:51:14.289Z,35440.00
2018-05-10T06:52:15.729Z,29696.00
2018-05-10T06:53:13.583Z,27400.00
2018-05-10T06:54:13.780Z,31104.00
2018-05-10T06:55:14.096Z,34512.00
2018-05-10T06:56:14.065Z,34328.00
2018-05-10T06:57:13.809Z,34440.00
2018-05-10T06:58:13.771Z,34584.00
2018-05-10T06:59:13.728Z,36928.00
2018-05-10T07:00:13.940Z,37072.00
2018-05-10T07:01:14.418Z,30776.00
2018-05-10T07:02:13.795Z,38632.00
2018-05-10T07:03:14.190Z,38432.00
2018-05-10T07:04:14.148Z,30072.00
2018-05-10T07:05:14.583Z,38520.00
2018-05-10T07:06:14.079Z,28096.00
2018-05-10T07:07:14.064Z,30632.00
2018-05-10T07:08:14.050Z,36008.00
2018-05-10T07:09:14.195Z,30136.00
2018-05-10T07:10:14.527Z,34688.00
2018-05-10T07:11:35.062Z,37320.00
2018-05-10T07:12:35.913Z,38872.00
2018-05-10T07:13:35.775Z,41832.00
2018-05-10T07:14:56.252Z,44000.00
2018-05-10T07:15:57.225Z,47744.00
2018-05-10T07:17:18.026Z,43536.00
2018-05-10T07:18:19.058Z,36888.00
2018-05-10T07:19:19.414Z,31552.00
2018-05-10T07:20:18.222Z,44712.00
2018-05-10T07:21:18.103Z,42744.00
2018-05-10T07:22:39.008Z,46304.00
2018-05-10T07:23:39.136Z,50456.00
2018-05-10T07:25:00.113Z,51960.00
2018-05-10T07:26:01.280Z,44616.00
2018-05-10T07:27:00.789Z,48544.00
2018-05-10T07:28:00.957Z,48888.00
2018-05-10T07:29:01.250Z,52352.00
2018-05-10T07:30:00.108Z,52664.00
2018-05-10T07:31:00.629Z,52048.00
2018-05-10T07:32:01.661Z,34920.00
2018-05-10T07:33:21.897Z,26152.00
2018-05-10T07:34:22.176Z,24608.00
2018-05-10T07:35:21.945Z,23768.00
2018-05-10T07:36:22.228Z,30232.00
2018-05-10T07:37:22.206Z,31304.00
2018-05-10T07:38:22.461Z,42880.00
2018-05-10T07:39:22.636Z,44696.00
2018-05-10T07:40:22.730Z,51288.00
2018-05-10T07:41:21.987Z,45928.00
2018-05-10T07:42:21.853Z,31056.00
2018-05-10T07:43:22.085Z,54600.00
2018-05-10T07:44:43.317Z,46232.00
2018-05-10T07:45:43.599Z,48400.00
2018-05-10T07:47:06.895Z,45048.00
2018-05-10T07:48:27.897Z,30136.00
2018-05-10T07:49:27.824Z,26920.00
2018-05-10T07:50:28.064Z,30608.00
2018-05-10T07:51:27.949Z,31576.00
2018-05-10T07:52:49.096Z,36184.00
2018-05-10T07:53:50.742Z,55656.00
2018-05-10T07:54:49.696Z,51696.00
2018-05-10T07:55:49.965Z,41344.00
2018-05-10T07:57:09.378Z,36216.00
2018-05-10T07:58:10.325Z,39032.00
2018-05-10T07:59:10.388Z,40032.00
2018-05-10T08:00:32.153Z,59344.00
2018-05-10T08:01:32.086Z,65535.00
2018-05-10T08:02:32.805Z,48800.00
2018-05-10T08:03:32.196Z,54096.00
2018-05-10T08:04:53.748Z,36296.00
2018-05-10T08:05:53.637Z,41952.00
2018-05-10T08:06:53.500Z,38248.00
2018-05-10T08:08:14.724Z,60352.00
2018-05-10T08:09:15.067Z,65512.00
2018-05-10T08:10:15.104Z,41736.00
2018-05-10T08:11:15.461Z,34088.00
2018-05-10T08:12:15.472Z,34360.00
2018-05-10T08:13:15.669Z,34792.00
2018-05-10T08:14:15.984Z,35352.00
2018-05-10T08:15:15.523Z,37152.00
2018-05-10T08:16:36.744Z,39376.00
2018-05-10T08:17:37.502Z,37264.00
2018-05-10T08:18:37.561Z,36064.00
2018-05-10T08:19:37.160Z,32560.00
2018-05-10T08:20:36.999Z,34432.00
2018-05-10T08:21:37.313Z,37912.00
2018-05-10T08:22:37.722Z,34488.00
2018-05-10T08:23:36.848Z,35216.00
2018-05-10T08:24:58.436Z,36960.00
2018-05-10T08:25:58.276Z,37488.00
2018-05-10T08:26:58.289Z,37584.00
2018-05-10T08:27:58.534Z,38048.00
2018-05-10T08:28:59.283Z,38040.00
2018-05-10T08:29:58.673Z,39176.00
2018-05-10T08:31:20.002Z,38360.00
2018-05-10T08:32:20.955Z,33528.00
2018-05-10T08:33:20.152Z,30584.00
2018-05-10T08:34:20.017Z,29832.00
2018-05-10T08:35:19.850Z,27424.00
2018-05-10T08:36:20.071Z,24216.00
2018-05-10T08:37:20.144Z,24344.00
2018-05-10T08:38:21.180Z,26608.00
2018-05-10T08:39:20.391Z,25672.00
2018-05-10T08:40:20.394Z,23640.00
2018-05-10T08:41:20.920Z,21872.00
2018-05-10T08:42:19.745Z,20784.00
2018-05-10T08:43:19.976Z,21384.00
2018-05-10T08:44:20.209Z,23160.00
2018-05-10T08:45:20.422Z,22376.00
2018-05-10T08:46:20.573Z,22032.00
2018-05-10T08:47:20.968Z,23672.00
2018-05-10T08:48:20.160Z,23960.00
2018-05-10T08:49:20.196Z,21976.00
2018-05-10T08:50:20.210Z,21760.00
2018-05-10T08:51:20.292Z,22632.00
2018-05-10T08:52:20.933Z,20016.00
2018-05-10T08:54:02.900Z,21256.00
2018-05-10T08:55:02.802Z,21728.00
2018-05-10T08:56:03.544Z,21152.00
2018-05-10T08:57:03.427Z,20872.00
2018-05-10T08:58:24.918Z,22488.00
2018-05-10T08:59:26.394Z,24504.00
2018-05-10T09:00:26.492Z,24096.00
2018-05-10T09:01:27.434Z,20232.00
2018-05-10T09:02:25.574Z,18032.00
2018-05-10T09:03:26.251Z,18952.00
2018-05-10T09:04:25.611Z,20176.00
2018-05-10T09:05:24.578Z,22592.00
2018-05-10T09:07:07.270Z,26720.00
2018-05-10T09:08:08.450Z,30768.00
2018-05-10T09:09:07.550Z,35920.00
2018-05-10T09:10:07.740Z,30160.00
2018-05-10T09:11:07.929Z,26168.00
2018-05-10T09:12:07.902Z,23888.00
2018-05-10T09:13:07.318Z,21352.00
2018-05-10T09:14:07.705Z,22624.00
2018-05-10T09:15:07.722Z,24784.00
2018-05-10T09:16:07.698Z,26032.00
2018-05-10T09:17:07.660Z,32528.00
2018-05-10T09:18:08.048Z,42280.00
2018-05-10T09:19:07.150Z,37944.00
2018-05-10T09:20:29.322Z,37920.00
2018-05-10T09:21:29.762Z,35224.00
2018-05-10T09:22:29.158Z,33584.00
2018-05-10T09:23:28.895Z,30504.00
2018-05-10T09:24:28.877Z,29512.00
2018-05-10T09:25:29.103Z,27920.00
2018-05-10T09:26:29.442Z,21648.00
2018-05-10T09:27:29.829Z,17432.00
2018-05-10T09:28:29.519Z,16465.00
2018-05-10T09:29:30.318Z,15928.00
2018-05-10T09:30:30.555Z,16784.00
2018-05-10T09:31:29.493Z,24024.00
2018-05-10T09:32:30.019Z,38688.00
2018-05-10T09:34:15.614Z,64568.00
2018-05-10T09:35:19.488Z,65535.00
2018-05-10T09:36:17.951Z,55336.00
2018-05-10T09:37:17.842Z,50248.00
2018-05-10T09:38:19.220Z,49160.00
2018-05-10T09:39:17.784Z,65535.00
2018-05-10T09:40:17.387Z,41696.00
2018-05-10T09:41:18.268Z,39768.00
2018-05-10T09:42:18.060Z,39136.00
2018-05-10T09:43:17.909Z,41912.00
2018-05-10T09:44:18.160Z,42416.00
2018-05-10T09:45:17.429Z,37080.00
2018-05-10T09:46:17.672Z,35720.00
2018-05-10T09:47:16.680Z,32312.00
2018-05-10T09:48:17.553Z,32896.00
2018-05-10T09:49:51.817Z,37936.00
2018-05-10T09:50:52.530Z,36104.00
2018-05-10T09:51:52.500Z,32456.00
2018-05-10T09:52:51.723Z,31176.00
2018-05-10T09:53:53.058Z,31832.00
2018-05-10T09:54:51.017Z,27576.00
2018-05-10T09:55:53.216Z,31304.00
2018-05-10T09:56:43.479Z,35216.00
2018-05-10T09:57:59.842Z,37208.00
2018-05-10T09:59:21.100Z,45608.00
2018-05-10T10:00:43.259Z,35384.00
2018-05-10T10:01:43.764Z,32552.00
2018-05-10T10:02:42.906Z,32904.00
2018-05-10T10:03:43.345Z,34576.00
2018-05-10T10:04:43.315Z,27840.00
2018-05-10T10:05:43.379Z,28056.00
2018-05-10T10:06:43.854Z,28856.00
2018-05-10T10:07:44.272Z,30112.00
2018-05-10T10:08:43.861Z,28560.00
2018-05-10T10:09:44.393Z,26272.00
2018-05-10T10:10:44.024Z,23512.00
2018-05-10T10:11:44.025Z,23312.00
2018-05-10T10:12:43.122Z,28128.00
2018-05-10T10:13:43.157Z,28200.00
2018-05-10T10:14:43.401Z,30608.00
2018-05-10T10:15:47.067Z,30768.00
2018-05-10T10:16:43.985Z,30088.00
2018-05-10T10:18:05.751Z,34648.00
2018-05-10T10:19:06.285Z,36736.00
2018-05-10T10:20:05.955Z,40976.00
2018-05-10T10:21:05.422Z,42568.00
2018-05-10T10:22:07.376Z,45952.00
2018-05-10T10:23:05.605Z,52072.00
2018-05-10T10:24:05.970Z,57536.00
2018-05-10T10:25:05.050Z,55488.00
2018-05-10T10:26:05.267Z,47560.00
2018-05-10T10:27:05.825Z,40384.00
2018-05-10T10:28:04.757Z,35176.00
2018-05-10T10:29:04.748Z,30032.00
2018-05-10T10:30:05.188Z,26664.00
2018-05-10T10:31:05.229Z,24696.00
2018-05-10T10:32:05.430Z,22616.00
2018-05-10T10:33:05.635Z,20032.00
2018-05-10T10:34:05.748Z,19680.00
2018-05-10T10:35:05.491Z,20568.00
2018-05-10T10:36:05.810Z,22096.00
2018-05-10T10:37:04.802Z,25824.00
2018-05-10T10:38:05.485Z,29024.00
2018-05-10T10:39:26.510Z,30336.00
2018-05-10T10:40:27.344Z,26424.00
2018-05-10T10:41:27.981Z,21600.00
2018-05-10T10:42:26.872Z,17336.00
2018-05-10T10:43:26.821Z,14677.00
2018-05-10T10:44:27.082Z,13640.00
2018-05-10T10:45:27.930Z,13584.00
2018-05-10T10:46:27.381Z,14406.00
2018-05-10T10:47:28.524Z,17216.00
2018-05-10T10:48:27.672Z,19128.00
2018-05-10T10:49:26.836Z,20456.00
2018-05-10T10:50:27.369Z,21952.00
2018-05-10T10:51:27.596Z,22752.00
2018-05-10T10:52:27.047Z,22768.00
2018-05-10T10:54:09.995Z,17048.00
2018-05-10T10:55:34.093Z,15930.00
2018-05-10T10:56:33.587Z,18064.00
2018-05-10T10:57:33.279Z,20400.00
2018-05-10T10:58:33.384Z,22072.00
2018-05-10T10:59:35.013Z,23976.00
2018-05-10T11:00:33.065Z,25040.00
2018-05-10T11:01:33.485Z,24736.00
2018-05-10T11:02:33.187Z,23616.00
2018-05-10T11:03:34.079Z,22576.00
2018-05-10T11:04:54.778Z,21480.00
2018-05-10T11:05:56.312Z,21648.00
2018-05-10T11:06:56.354Z,21952.00
2018-05-10T11:07:55.423Z,22168.00
2018-05-10T11:08:55.450Z,22480.00
2018-05-10T11:10:16.627Z,23000.00
2018-05-10T11:11:37.905Z,23920.00
2018-05-10T11:12:38.541Z,23984.00
2018-05-10T11:13:38.916Z,23224.00
2018-05-10T11:15:21.611Z,18600.00
2018-05-10T11:16:22.469Z,16542.00
2018-05-10T11:17:21.904Z,15008.00
2018-05-10T11:18:21.957Z,14534.00
2018-05-10T11:19:22.354Z,14205.00
2018-05-10T11:20:21.596Z,13142.00
2018-05-10T11:21:22.087Z,11733.00
2018-05-10T11:22:21.973Z,10898.00
2018-05-10T11:23:22.434Z,10903.00
2018-05-10T11:24:21.305Z,10579.00
2018-05-10T11:25:43.353Z,9168.00
2018-05-10T11:26:43.545Z,8160.00
2018-05-10T11:27:43.700Z,7506.00
2018-05-10T11:28:44.732Z,7084.00
2018-05-10T11:30:04.846Z,6408.00
2018-05-10T11:31:07.571Z,6063.00
2018-05-10T11:32:05.070Z,5885.00
2018-05-10T11:33:05.293Z,5602.00
2018-05-10T11:34:04.560Z,5111.00
2018-05-10T11:35:25.993Z,4659.00
2018-05-10T11:36:26.318Z,4508.00
2018-05-10T11:37:27.029Z,4424.00
2018-05-10T11:38:26.528Z,4250.00
2018-05-10T11:39:26.739Z,3913.00
2018-05-10T11:40:26.506Z,3544.00
2018-05-10T11:41:26.908Z,3295.00
2018-05-10T11:42:26.278Z,3315.00
2018-05-10T11:43:26.154Z,3525.00
2018-05-10T11:44:47.055Z,3826.00
2018-05-10T11:45:48.365Z,3888.00
2018-05-10T11:46:47.753Z,3816.00
2018-05-10T11:47:48.189Z,3569.00
2018-05-10T11:48:47.648Z,3282.00
2018-05-10T11:49:47.498Z,3209.00
2018-05-10T11:50:47.590Z,3283.00
2018-05-10T11:51:47.972Z,3518.00
2018-05-10T11:52:48.437Z,3950.00
2018-05-10T11:53:47.757Z,4463.00
2018-05-10T11:54:48.182Z,5016.00
2018-05-10T11:55:49.707Z,5645.00
2018-05-10T11:56:48.045Z,6284.00
2018-05-10T11:57:47.218Z,6686.00
2018-05-10T11:58:48.164Z,6813.00
2018-05-10T12:00:07.780Z,6544.00
2018-05-10T12:01:29.686Z,6227.00
2018-05-10T12:02:30.639Z,6177.00
2018-05-10T12:03:29.704Z,6191.00
2018-05-10T12:04:30.201Z,6111.00
2018-05-10T12:05:31.109Z,6027.00
2018-05-10T12:06:30.674Z,6002.00
2018-05-10T12:07:29.581Z,5961.00
2018-05-10T12:08:50.611Z,5567.00
2018-05-10T12:09:52.511Z,5514.00
2018-05-10T12:10:51.118Z,5840.00
2018-05-10T12:11:50.955Z,6435.00
2018-05-10T12:13:12.528Z,7424.00
2018-05-10T12:14:55.314Z,8436.00
2018-05-10T12:15:55.652Z,9180.00
2018-05-10T12:17:40.116Z,10087.00
2018-05-10T12:18:40.113Z,9856.00
2018-05-10T12:19:41.287Z,8602.00
2018-05-10T12:20:43.757Z,7374.00
2018-05-10T12:22:05.307Z,7105.00
2018-05-10T12:23:05.803Z,7307.00
2018-05-10T12:24:27.450Z,7437.00
2018-05-10T12:25:28.141Z,7342.00
2018-05-10T12:26:28.325Z,7019.00
2018-05-10T12:27:30.540Z,6280.00
2018-05-10T12:28:28.137Z,5663.00
2018-05-10T12:29:28.957Z,5067.00
2018-05-10T12:30:28.258Z,4656.00
2018-05-10T12:31:28.541Z,4548.00
2018-05-10T12:32:49.496Z,4572.00
2018-05-10T12:33:50.130Z,4411.00
2018-05-10T12:34:49.922Z,4214.00
2018-05-10T12:35:50.094Z,4013.00
2018-05-10T12:36:49.863Z,4041.00
2018-05-10T12:37:50.397Z,3935.00
2018-05-10T12:38:50.101Z,3646.00
2018-05-10T12:39:50.112Z,3704.00
2018-05-10T12:40:50.473Z,4389.00
2018-05-10T12:41:49.822Z,4673.00
2018-05-10T12:42:50.959Z,4774.00
2018-05-10T12:43:50.408Z,4844.00
2018-05-10T12:44:50.096Z,4819.00
2018-05-10T12:45:49.697Z,4674.00
2018-05-10T12:46:50.926Z,4391.00
2018-05-10T12:47:49.746Z,4202.00
2018-05-10T12:49:13.986Z,4368.00
2018-05-10T12:50:14.110Z,4342.00
2018-05-10T12:51:13.573Z,3932.00
2018-05-10T12:52:14.027Z,3819.00
2018-05-10T12:53:14.593Z,4106.00
2018-05-10T12:54:13.508Z,3901.00
2018-05-10T12:55:13.463Z,3640.00